Cuatreros, Argentina
Current Conditions -  °F | °C
As of 8:35 PM on Friday 24 Oct 2014 (Local Time) from SAZM Reporting Station
Haze Haze  
Wind Chill: 61°   Ceiling: 300
Heat Index: 61°   Visibility: 0.81mi
Dew Point: 61°   Wind: 6mph
Humidity: 100%   Direction: 90°E
Pressure: 30"   Gusts: NA
Location:  38.7°S, 62.4°W
Report Text: SAZM 242335Z 09005KT 1300 BR BKN003 OVC008 16/16 Q1016
Loading
Personal Weather Stations






























Interactive Weather Map
Tropical Storm Tracking
New forecast layout! Learn more

10-Day Weather Forecast

Advertisements
Track Severe Weather on mobile